sensor_id;sensor_type;location;lat;lon;timestamp;pressure;altitude;pressure_sealevel;temperature;humidity
61109;BME280;46995;55.740;37.402;2023-02-23T00:01:56;99467.94;;;-13.81;72.25
61109;BME280;46995;55.740;37.402;2023-02-23T00:04:25;99481.47;;;-13.81;72.77
61109;BME280;46995;55.740;37.402;2023-02-23T00:06:51;99475.50;;;-13.86;72.79
61109;BME280;46995;55.740;37.402;2023-02-23T00:09:18;99488.22;;;-13.81;72.44
61109;BME280;46995;55.740;37.402;2023-02-23T00:11:53;99495.84;;;-13.83;72.22
61109;BME280;46995;55.740;37.402;2023-02-23T00:14:23;99484.75;;;-13.91;72.46
61109;BME280;46995;55.740;37.402;2023-02-23T00:16:52;99485.59;;;-13.93;72.71
61109;BME280;46995;55.740;37.402;2023-02-23T00:19:18;99467.63;;;-14.11;73.07
61109;BME280;46995;55.740;37.402;2023-02-23T00:21:44;99475.25;;;-14.10;72.37
61109;BME280;46995;55.740;37.402;2023-02-23T00:24:12;99509.22;;;-13.96;72.84
61109;BME280;46995;55.740;37.402;2023-02-23T00:26:44;99509.22;;;-13.96;72.39
61109;BME280;46995;55.740;37.402;2023-02-23T00:29:14;99499.06;;;-13.99;73.36
61109;BME280;46995;55.740;37.402;2023-02-23T00:31:47;99515.16;;;-13.95;73.12
61109;BME280;46995;55.740;37.402;2023-02-23T00:34:15;99504.91;;;-14.04;73.34
61109;BME280;46995;55.740;37.402;2023-02-23T00:36:49;99510.94;;;-13.92;72.96
61109;BME280;46995;55.740;37.402;2023-02-23T00:39:15;99492.25;;;-14.01;73.10
61109;BME280;46995;55.740;37.402;2023-02-23T00:41:48;99510.94;;;-13.92;73.16
61109;BME280;46995;55.740;37.402;2023-02-23T00:44:14;99511.81;;;-13.93;72.94
61109;BME280;46995;55.740;37.402;2023-02-23T00:46:43;99502.44;;;-13.97;73.13
61109;BME280;46995;55.740;37.402;2023-02-23T00:49:11;99493.97;;;-13.99;73.11
61109;BME280;46995;55.740;37.402;2023-02-23T00:51:38;99504.22;;;-13.90;73.28
61109;BME280;46995;55.740;37.402;2023-02-23T00:54:06;99522.94;;;-13.79;73.34
61109;BME280;46995;55.740;37.402;2023-02-23T00:56:33;99500.94;;;-13.83;72.88
61109;BME280;46995;55.740;37.402;2023-02-23T00:58:59;99507.59;;;-13.91;72.57
61109;BME280;46995;55.740;37.402;2023-02-23T01:01:26;99525.41;;;-13.86;72.76
61109;BME280;46995;55.740;37.402;2023-02-23T01:03:53;99499.00;;;-14.05;73.02
61109;BME280;46995;55.740;37.402;2023-02-23T01:06:19;99527.94;;;-13.88;73.09
61109;BME280;46995;55.740;37.402;2023-02-23T01:08:46;99513.38;;;-14.02;73.11
61109;BME280;46995;55.740;37.402;2023-02-23T01:11:27;99538.88;;;-13.90;73.42
61109;BME280;46995;55.740;37.402;2023-02-23T01:13:57;99527.81;;;-13.97;72.66
61109;BME280;46995;55.740;37.402;2023-02-23T01:16:26;99505.66;;;-14.13;73.31
61109;BME280;46995;55.740;37.402;2023-02-23T01:18:54;99516.66;;;-14.11;73.27
61109;BME280;46995;55.740;37.402;2023-02-23T01:21:25;99507.34;;;-14.12;73.52
61109;BME280;46995;55.740;37.402;2023-02-23T01:23:52;99537.97;;;-13.97;73.38
61109;BME280;46995;55.740;37.402;2023-02-23T01:26:24;99524.34;;;-14.05;73.00
61109;BME280;46995;55.740;37.402;2023-02-23T01:28:52;99529.41;;;-14.08;72.76
61109;BME280;46995;55.740;37.402;2023-02-23T01:31:21;99534.50;;;-14.05;72.91
61109;BME280;46995;55.740;37.402;2023-02-23T01:33:47;99537.84;;;-14.09;73.76
61109;BME280;46995;55.740;37.402;2023-02-23T01:36:16;99537.91;;;-14.03;73.08
61109;BME280;46995;55.740;37.402;2023-02-23T01:38:43;99513.19;;;-14.19;73.31
61109;BME280;46995;55.740;37.402;2023-02-23T01:41:09;99541.28;;;-14.04;73.09
61109;BME280;46995;55.740;37.402;2023-02-23T01:46:26;99542.94;;;-14.06;72.91
61109;BME280;46995;55.740;37.402;2023-02-23T01:48:54;99531.03;;;-14.13;73.10
61109;BME280;46995;55.740;37.402;2023-02-23T01:51:24;99542.03;;;-14.11;73.56
61109;BME280;46995;55.740;37.402;2023-02-23T01:54:11;99525.88;;;-14.19;73.39
61109;BME280;46995;55.740;37.402;2023-02-23T01:56:45;99553.00;;;-14.12;73.31
61109;BME280;46995;55.740;37.402;2023-02-23T01:59:16;99537.56;;;-14.30;72.72
61109;BME280;46995;55.740;37.402;2023-02-23T02:01:42;99554.53;;;-14.26;73.60
61109;BME280;46995;55.740;37.402;2023-02-23T02:04:10;99545.94;;;-14.36;73.24
61109;BME280;46995;55.740;37.402;2023-02-23T02:06:42;99556.16;;;-14.31;73.26
61109;BME280;46995;55.740;37.402;2023-02-23T02:09:13;99545.16;;;-14.32;73.11
61109;BME280;46995;55.740;37.402;2023-02-23T02:11:44;99557.81;;;-14.33;73.38
61109;BME280;46995;55.740;37.402;2023-02-23T02:14:16;99568.84;;;-14.28;72.96
61109;BME280;46995;55.740;37.402;2023-02-23T02:22:58;99569.66;;;-14.32;73.55
61109;BME280;46995;55.740;37.402;2023-02-23T02:41:32;99576.28;;;-14.43;72.93
61109;BME280;46995;55.740;37.402;2023-02-23T02:44:17;99582.31;;;-14.35;73.13
61109;BME280;46995;55.740;37.402;2023-02-23T02:46:47;99593.31;;;-14.36;72.88
61109;BME280;46995;55.740;37.402;2023-02-23T02:49:29;99582.19;;;-14.46;72.71
61109;BME280;46995;55.740;37.402;2023-02-23T02:52:08;99571.00;;;-14.58;73.18
61109;BME280;46995;55.740;37.402;2023-02-23T02:54:40;99595.66;;;-14.50;73.58
61109;BME280;46995;55.740;37.402;2023-02-23T02:57:10;99589.56;;;-14.59;73.22
61109;BME280;46995;55.740;37.402;2023-02-23T02:59:44;99583.59;;;-14.65;73.36
61109;BME280;46995;55.740;37.402;2023-02-23T03:02:36;99580.16;;;-14.68;73.36
61109;BME280;46995;55.740;37.402;2023-02-23T03:05:30;99582.63;;;-14.73;73.09
61109;BME280;46995;55.740;37.402;2023-02-23T03:11:10;99587.69;;;-14.73;73.48
61109;BME280;46995;55.740;37.402;2023-02-23T03:17:07;99593.63;;;-14.72;73.07
61109;BME280;46995;55.740;37.402;2023-02-23T03:25:59;99608.66;;;-14.83;73.61
61109;BME280;46995;55.740;37.402;2023-02-23T03:34:38;99610.19;;;-14.91;73.41
61109;BME280;46995;55.740;37.402;2023-02-23T03:37:37;99612.66;;;-14.97;73.57
61109;BME280;46995;55.740;37.402;2023-02-23T03:40:31;99596.50;;;-15.03;73.32
61109;BME280;46995;55.740;37.402;2023-02-23T03:43:22;99581.84;;;-15.21;73.84
61109;BME280;46995;55.740;37.402;2023-02-23T03:46:11;99619.44;;;-14.94;72.86
61109;BME280;46995;55.740;37.402;2023-02-23T03:48:59;99615.88;;;-15.07;73.45
61109;BME280;46995;55.740;37.402;2023-02-23T03:51:49;99616.72;;;-15.05;73.37
61109;BME280;46995;55.740;37.402;2023-02-23T03:54:40;99625.22;;;-15.01;73.25
61109;BME280;46995;55.740;37.402;2023-02-23T03:57:28;99624.41;;;-15.02;73.69
61109;BME280;46995;55.740;37.402;2023-02-23T04:00:22;99627.72;;;-15.05;73.67
61109;BME280;46995;55.740;37.402;2023-02-23T04:03:08;99610.59;;;-15.19;73.65
61109;BME280;46995;55.740;37.402;2023-02-23T04:05:56;99630.09;;;-15.14;73.37
61109;BME280;46995;55.740;37.402;2023-02-23T04:08:41;99615.56;;;-15.22;73.74
61109;BME280;46995;55.740;37.402;2023-02-23T04:14:38;99640.00;;;-15.26;73.39
61109;BME280;46995;55.740;37.402;2023-02-23T04:17:09;99661.16;;;-15.24;73.75
61109;BME280;46995;55.740;37.402;2023-02-23T04:19:36;99640.75;;;-15.31;73.81
61109;BME280;46995;55.740;37.402;2023-02-23T04:22:02;99655.34;;;-15.18;73.48
61109;BME280;46995;55.740;37.402;2023-02-23T04:24:29;99646.03;;;-15.19;73.99
61109;BME280;46995;55.740;37.402;2023-02-23T04:26:54;99648.53;;;-15.21;73.28
61109;BME280;46995;55.740;37.402;2023-02-23T04:29:20;99650.19;;;-15.23;73.57
61109;BME280;46995;55.740;37.402;2023-02-23T04:31:46;99648.59;;;-15.18;73.85
61109;BME280;46995;55.740;37.402;2023-02-23T04:34:13;99635.94;;;-15.16;73.55
61109;BME280;46995;55.740;37.402;2023-02-23T04:36:38;99626.59;;;-15.20;73.57
61109;BME280;46995;55.740;37.402;2023-02-23T04:39:05;99641.94;;;-15.11;73.20
61109;BME280;46995;55.740;37.402;2023-02-23T04:41:31;99634.06;;;-15.26;73.52
61109;BME280;46995;55.740;37.402;2023-02-23T04:43:57;99643.53;;;-15.18;73.08
61109;BME280;46995;55.740;37.402;2023-02-23T04:46:23;99640.03;;;-15.24;73.36
61109;BME280;46995;55.740;37.402;2023-02-23T04:48:49;99652.72;;;-15.21;73.17
61109;BME280;46995;55.740;37.402;2023-02-23T04:51:14;99647.41;;;-15.36;73.03
61109;BME280;46995;55.740;37.402;2023-02-23T04:53:40;99632.03;;;-15.45;73.44
61109;BME280;46995;55.740;37.402;2023-02-23T04:56:06;99641.47;;;-15.38;73.63
61109;BME280;46995;55.740;37.402;2023-02-23T04:58:32;99654.41;;;-15.23;73.32
61109;BME280;46995;55.740;37.402;2023-02-23T05:01:06;99633.91;;;-15.35;73.84
61109;BME280;46995;55.740;37.402;2023-02-23T05:03:32;99630.50;;;-15.37;73.38
61109;BME280;46995;55.740;37.402;2023-02-23T05:05:58;99645.84;;;-15.30;73.16
61109;BME280;46995;55.740;37.402;2023-02-23T05:08:24;99643.22;;;-15.34;73.36
61109;BME280;46995;55.740;37.402;2023-02-23T05:10:51;99664.56;;;-15.20;73.11
61109;BME280;46995;55.740;37.402;2023-02-23T05:13:16;99663.72;;;-15.21;73.26
61109;BME280;46995;55.740;37.402;2023-02-23T05:15:42;99664.69;;;-15.14;73.43
61109;BME280;46995;55.740;37.402;2023-02-23T05:18:08;99663.84;;;-15.15;73.18
61109;BME280;46995;55.740;37.402;2023-02-23T05:20:35;99677.41;;;-15.11;72.65
61109;BME280;46995;55.740;37.402;2023-02-23T05:23:01;99668.03;;;-15.15;73.18
61109;BME280;46995;55.740;37.402;2023-02-23T05:25:26;99666.28;;;-15.19;73.34
61109;BME280;46995;55.740;37.402;2023-02-23T05:27:52;99679.06;;;-15.12;72.89
61109;BME280;46995;55.740;37.402;2023-02-23T05:30:18;99680.00;;;-15.08;73.10
61109;BME280;46995;55.740;37.402;2023-02-23T05:32:44;99669.69;;;-15.17;72.97
61109;BME280;46995;55.740;37.402;2023-02-23T05:35:09;99660.47;;;-15.12;73.21
61109;BME280;46995;55.740;37.402;2023-02-23T05:37:35;99675.03;;;-15.02;73.29
61109;BME280;46995;55.740;37.402;2023-02-23T05:40:01;99649.38;;;-15.20;72.84
61109;BME280;46995;55.740;37.402;2023-02-23T05:42:29;99682.59;;;-15.03;73.47
61109;BME280;46995;55.740;37.402;2023-02-23T05:44:55;99672.41;;;-15.08;72.93
61109;BME280;46995;55.740;37.402;2023-02-23T05:47:21;99688.69;;;-14.94;72.91
61109;BME280;46995;55.740;37.402;2023-02-23T05:49:46;99686.16;;;-14.94;72.87
61109;BME280;46995;55.740;37.402;2023-02-23T05:52:13;99678.56;;;-14.94;72.92
61109;BME280;46995;55.740;37.402;2023-02-23T05:54:39;99686.38;;;-14.80;73.06
61109;BME280;46995;55.740;37.402;2023-02-23T05:57:05;99682.91;;;-14.87;72.47
61109;BME280;46995;55.740;37.402;2023-02-23T05:59:30;99695.66;;;-14.81;72.90
61109;BME280;46995;55.740;37.402;2023-02-23T06:01:56;99680.38;;;-14.87;72.66
61109;BME280;46995;55.740;37.402;2023-02-23T06:04:22;99695.66;;;-14.81;72.65
61109;BME280;46995;55.740;37.402;2023-02-23T06:06:48;99696.44;;;-14.85;73.10
61109;BME280;46995;55.740;37.402;2023-02-23T06:09:14;99693.19;;;-14.78;72.78
61109;BME280;46995;55.740;37.402;2023-02-23T06:11:40;99675.38;;;-14.81;72.70
61109;BME280;46995;55.740;37.402;2023-02-23T06:14:06;99671.91;;;-14.86;72.78
61109;BME280;46995;55.740;37.402;2023-02-23T06:16:32;99684.06;;;-14.68;73.02
61109;BME280;46995;55.740;37.402;2023-02-23T06:18:58;99689.25;;;-14.60;73.16
61109;BME280;46995;55.740;37.402;2023-02-23T06:21:24;99679.13;;;-14.60;72.41
61109;BME280;46995;55.740;37.402;2023-02-23T06:23:50;99675.75;;;-14.59;72.74
61109;BME280;46995;55.740;37.402;2023-02-23T06:26:17;99677.53;;;-14.55;72.44
61109;BME280;46995;55.740;37.402;2023-02-23T06:28:44;99707.41;;;-14.33;72.76
61109;BME280;46995;55.740;37.402;2023-02-23T06:31:11;99701.56;;;-14.29;72.65
61109;BME280;46995;55.740;37.402;2023-02-23T06:33:38;99690.53;;;-14.31;72.67
61109;BME280;46995;55.740;37.402;2023-02-23T06:36:04;99676.25;;;-14.26;72.35
61109;BME280;46995;55.740;37.402;2023-02-23T06:38:30;99688.41;;;-14.04;72.50
61109;BME280;46995;55.740;37.402;2023-02-23T06:40:58;99707.19;;;-13.90;72.67
61109;BME280;46995;55.740;37.402;2023-02-23T06:43:25;99672.47;;;-13.94;72.57
61109;BME280;46995;55.740;37.402;2023-02-23T06:45:50;99697.16;;;-13.84;72.61
61109;BME280;46995;55.740;37.402;2023-02-23T06:48:16;99687.78;;;-13.86;72.58
61109;BME280;46995;55.740;37.402;2023-02-23T06:50:42;99697.22;;;-13.78;72.19
61109;BME280;46995;55.740;37.402;2023-02-23T06:53:08;99701.63;;;-13.64;72.90
61109;BME280;46995;55.740;37.402;2023-02-23T06:55:36;99693.28;;;-13.54;72.81
61109;BME280;46995;55.740;37.402;2023-02-23T06:58:02;99682.34;;;-13.50;72.68
61109;BME280;46995;55.740;37.402;2023-02-23T07:00:29;99663.56;;;-13.63;72.44
61109;BME280;46995;55.740;37.402;2023-02-23T07:02:55;99680.66;;;-13.48;72.48
61109;BME280;46995;55.740;37.402;2023-02-23T07:05:22;99712.25;;;-13.26;72.06
61109;BME280;46995;55.740;37.402;2023-02-23T07:07:47;99686.81;;;-13.28;72.33
61109;BME280;46995;55.740;37.402;2023-02-23T07:10:13;99694.59;;;-13.16;72.08
61109;BME280;46995;55.740;37.402;2023-02-23T07:12:39;99711.69;;;-13.00;72.24
61109;BME280;46995;55.740;37.402;2023-02-23T07:15:06;99720.28;;;-12.85;72.50
61109;BME280;46995;55.740;37.402;2023-02-23T07:17:32;99729.72;;;-12.77;72.82
61109;BME280;46995;55.740;37.402;2023-02-23T07:19:57;99714.53;;;-12.68;72.28
61109;BME280;46995;55.740;37.402;2023-02-23T07:22:23;99700.03;;;-12.76;72.28
61109;BME280;46995;55.740;37.402;2023-02-23T07:24:52;99719.66;;;-12.63;72.40
61109;BME280;46995;55.740;37.402;2023-02-23T07:27:19;99722.31;;;-12.51;71.96
61109;BME280;46995;55.740;37.402;2023-02-23T07:29:45;99675.50;;;-12.74;72.10
61109;BME280;46995;55.740;37.402;2023-02-23T07:32:11;99693.34;;;-12.65;72.25
61109;BME280;46995;55.740;37.402;2023-02-23T07:34:37;99689.97;;;-12.64;72.14
61109;BME280;46995;55.740;37.402;2023-02-23T07:37:05;99688.38;;;-12.56;71.89
61109;BME280;46995;55.740;37.402;2023-02-23T07:39:31;99714.84;;;-12.31;71.92
61109;BME280;46995;55.740;37.402;2023-02-23T07:41:57;99741.28;;;-12.13;71.13
61109;BME280;46995;55.740;37.402;2023-02-23T07:44:23;99734.47;;;-12.17;71.29
61109;BME280;46995;55.740;37.402;2023-02-23T07:46:48;99728.53;;;-12.17;71.34
61109;BME280;46995;55.740;37.402;2023-02-23T07:49:15;99737.91;;;-12.09;71.50
61109;BME280;46995;55.740;37.402;2023-02-23T07:51:41;99728.69;;;-11.99;70.98
61109;BME280;46995;55.740;37.402;2023-02-23T07:54:07;99738.91;;;-11.87;70.60
61109;BME280;46995;55.740;37.402;2023-02-23T07:56:34;99723.59;;;-11.93;71.21
61109;BME280;46995;55.740;37.402;2023-02-23T07:59:00;99709.22;;;-11.86;70.59
61109;BME280;46995;55.740;37.402;2023-02-23T08:01:26;99711.84;;;-11.74;70.44
61109;BME280;46995;55.740;37.402;2023-02-23T08:03:52;99722.94;;;-11.60;70.42
61109;BME280;46995;55.740;37.402;2023-02-23T08:06:18;99718.75;;;-11.49;70.59
61109;BME280;46995;55.740;37.402;2023-02-23T08:08:47;99717.09;;;-11.41;70.28
61109;BME280;46995;55.740;37.402;2023-02-23T08:11:13;99716.25;;;-11.34;69.74
61109;BME280;46995;55.740;37.402;2023-02-23T08:13:42;99729.91;;;-11.23;69.80
61109;BME280;46995;55.740;37.402;2023-02-23T08:16:08;99675.44;;;-11.46;69.55
61109;BME280;46995;55.740;37.402;2023-02-23T08:18:37;99718.03;;;-11.21;69.38
61109;BME280;46995;55.740;37.402;2023-02-23T08:21:03;99678.91;;;-11.32;69.25
61109;BME280;46995;55.740;37.402;2023-02-23T08:23:31;99679.78;;;-11.18;69.53
61109;BME280;46995;55.740;37.402;2023-02-23T08:26:02;99730.00;;;-10.83;69.06
61109;BME280;46995;55.740;37.402;2023-02-23T08:28:29;99633.88;;;-11.30;68.94
61109;BME280;46995;55.740;37.402;2023-02-23T08:30:55;99617.75;;;-11.23;69.19
61109;BME280;46995;55.740;37.402;2023-02-23T08:33:25;99680.72;;;-10.82;68.38
61109;BME280;46995;55.740;37.402;2023-02-23T08:35:51;99688.38;;;-10.72;68.73
61109;BME280;46995;55.740;37.402;2023-02-23T08:38:18;99723.31;;;-10.48;68.15
61109;BME280;46995;55.740;37.402;2023-02-23T08:40:44;99698.59;;;-10.56;67.86
61109;BME280;46995;55.740;37.402;2023-02-23T08:43:13;99681.59;;;-10.66;68.15
61109;BME280;46995;55.740;37.402;2023-02-23T08:45:40;99730.09;;;-10.35;68.35
61109;BME280;46995;55.740;37.402;2023-02-23T08:48:07;99684.16;;;-10.51;68.22
61109;BME280;46995;55.740;37.402;2023-02-23T08:50:36;99682.47;;;-10.54;67.57
61109;BME280;46995;55.740;37.402;2023-02-23T08:53:02;99664.59;;;-10.54;67.81
61109;BME280;46995;55.740;37.402;2023-02-23T08:55:28;99711.41;;;-10.21;67.80
61109;BME280;46995;55.740;37.402;2023-02-23T08:57:54;99711.34;;;-10.12;67.50
61109;BME280;46995;55.740;37.402;2023-02-23T09:00:22;99720.69;;;-9.93;66.83
61109;BME280;46995;55.740;37.402;2023-02-23T09:02:49;99678.19;;;-10.18;66.81
61109;BME280;46995;55.740;37.402;2023-02-23T09:05:16;99717.31;;;-9.91;66.91
61109;BME280;46995;55.740;37.402;2023-02-23T09:07:42;99730.03;;;-9.78;66.70
61109;BME280;46995;55.740;37.402;2023-02-23T09:10:18;99676.44;;;-10.04;66.48
61109;BME280;46995;55.740;37.402;2023-02-23T09:12:45;99699.41;;;-9.86;66.38
61109;BME280;46995;55.740;37.402;2023-02-23T09:15:11;99677.28;;;-9.87;66.41
61109;BME280;46995;55.740;37.402;2023-02-23T09:17:37;99722.34;;;-9.59;66.22
61109;BME280;46995;55.740;37.402;2023-02-23T09:20:04;99721.47;;;-9.56;65.67
61109;BME280;46995;55.740;37.402;2023-02-23T09:22:31;99713.81;;;-9.53;66.18
61109;BME280;46995;55.740;37.402;2023-02-23T09:25:02;99712.94;;;-9.51;66.31
61109;BME280;46995;55.740;37.402;2023-02-23T09:27:34;99666.16;;;-9.63;65.96
61109;BME280;46995;55.740;37.402;2023-02-23T09:30:00;99689.91;;;-9.32;65.75
61109;BME280;46995;55.740;37.402;2023-02-23T09:32:29;99672.84;;;-9.33;65.18
61109;BME280;46995;55.740;37.402;2023-02-23T09:34:54;99709.34;;;-9.01;65.28
61109;BME280;46995;55.740;37.402;2023-02-23T09:37:20;99698.28;;;-9.03;65.11
61109;BME280;46995;55.740;37.402;2023-02-23T09:39:50;99697.41;;;-9.01;64.90
61109;BME280;46995;55.740;37.402;2023-02-23T09:42:45;99707.53;;;-8.79;64.94
61109;BME280;46995;55.740;37.402;2023-02-23T09:48:24;99695.53;;;-8.73;64.60
61109;BME280;46995;55.740;37.402;2023-02-23T09:50:53;99704.03;;;-8.68;63.70
61109;BME280;46995;55.740;37.402;2023-02-23T09:53:25;99696.38;;;-8.71;64.14
61109;BME280;46995;55.740;37.402;2023-02-23T09:55:58;99674.28;;;-8.79;64.16
61109;BME280;46995;55.740;37.402;2023-02-23T09:58:31;99683.56;;;-8.68;63.85
61109;BME280;46995;55.740;37.402;2023-02-23T10:01:20;99689.38;;;-8.47;63.51
61109;BME280;46995;55.740;37.402;2023-02-23T10:04:19;99692.75;;;-8.38;63.92
61109;BME280;46995;55.740;37.402;2023-02-23T10:18:08;99683.13;;;-8.11;62.30
61109;BME280;46995;55.740;37.402;2023-02-23T10:23:27;99667.75;;;-8.16;62.27
61109;BME280;46995;55.740;37.402;2023-02-23T10:25:56;99688.97;;;-7.99;64.17
61109;BME280;46995;55.740;37.402;2023-02-23T10:28:32;99694.94;;;-7.97;62.36
61109;BME280;46995;55.740;37.402;2023-02-23T10:31:02;99687.25;;;-7.97;62.10
61109;BME280;46995;55.740;37.402;2023-02-23T10:33:35;99671.97;;;-8.10;62.09
61109;BME280;46995;55.740;37.402;2023-02-23T10:36:38;99696.69;;;-8.02;62.55
61109;BME280;46995;55.740;37.402;2023-02-23T10:39:07;99666.91;;;-8.15;62.62
61109;BME280;46995;55.740;37.402;2023-02-23T10:41:36;99686.41;;;-7.99;62.30
61109;BME280;46995;55.740;37.402;2023-02-23T10:44:04;99697.44;;;-7.91;62.38
61109;BME280;46995;55.740;37.402;2023-02-23T10:46:37;99677.00;;;-7.97;61.95
61109;BME280;46995;55.740;37.402;2023-02-23T10:49:05;99677.00;;;-7.97;61.63
61109;BME280;46995;55.740;37.402;2023-02-23T10:51:35;99692.22;;;-7.80;61.25
61109;BME280;46995;55.740;37.402;2023-02-23T10:54:43;99694.72;;;-7.76;62.04
61109;BME280;46995;55.740;37.402;2023-02-23T11:00:48;99663.97;;;-7.77;61.20
61109;BME280;46995;55.740;37.402;2023-02-23T11:02:46;99657.09;;;-7.74;61.81
61109;BME280;46995;55.740;37.402;2023-02-23T11:10:59;99645.88;;;-7.62;60.92
61109;BME280;46995;55.740;37.402;2023-02-23T11:13:28;99659.47;;;-7.54;61.10
61109;BME280;46995;55.740;37.402;2023-02-23T11:16:10;99664.50;;;-7.46;61.19
61109;BME280;46995;55.740;37.402;2023-02-23T11:19:01;99649.22;;;-7.54;61.31
61109;BME280;46995;55.740;37.402;2023-02-23T11:24:14;99642.38;;;-7.58;60.61
61109;BME280;46995;55.740;37.402;2023-02-23T11:26:45;99668.66;;;-7.38;60.55
61109;BME280;46995;55.740;37.402;2023-02-23T11:31:56;99638.94;;;-7.54;60.28
61109;BME280;46995;55.740;37.402;2023-02-23T11:34:43;99672.00;;;-7.30;61.10
61109;BME280;46995;55.740;37.402;2023-02-23T11:39:57;99604.00;;;-7.62;59.59
61109;BME280;46995;55.740;37.402;2023-02-23T11:42:26;99608.19;;;-7.57;59.81
61109;BME280;46995;55.740;37.402;2023-02-23T11:45:17;99673.50;;;-7.15;59.87
61109;BME280;46995;55.740;37.402;2023-02-23T11:47:51;99670.88;;;-7.10;59.57
61109;BME280;46995;55.740;37.402;2023-02-23T11:50:30;99652.25;;;-7.23;59.49
61109;BME280;46995;55.740;37.402;2023-02-23T11:53:16;99638.66;;;-7.31;59.41
61109;BME280;46995;55.740;37.402;2023-02-23T11:55:51;99640.28;;;-7.22;59.40
61109;BME280;46995;55.740;37.402;2023-02-23T11:58:33;99669.06;;;-7.02;59.39
61109;BME280;46995;55.740;37.402;2023-02-23T12:01:17;99664.75;;;-6.99;59.07
61109;BME280;46995;55.740;37.402;2023-02-23T12:03:56;99651.91;;;-6.97;58.47
61109;BME280;46995;55.740;37.402;2023-02-23T12:09:36;99610.28;;;-7.19;58.31
61109;BME280;46995;55.740;37.402;2023-02-23T12:12:09;99650.13;;;-6.92;58.42
61109;BME280;46995;55.740;37.402;2023-02-23T12:14:48;99628.88;;;-7.02;58.33
61109;BME280;46995;55.740;37.402;2023-02-23T12:17:39;99648.34;;;-6.87;58.02
61109;BME280;46995;55.740;37.402;2023-02-23T12:20:19;99646.56;;;-6.85;57.71
61109;BME280;46995;55.740;37.402;2023-02-23T12:23:17;99630.44;;;-6.92;58.06
61109;BME280;46995;55.740;37.402;2023-02-23T12:25:53;99635.56;;;-6.92;57.86
61109;BME280;46995;55.740;37.402;2023-02-23T12:34:01;99634.75;;;-6.95;57.39
61109;BME280;46995;55.740;37.402;2023-02-23T12:36:42;99647.47;;;-6.88;57.31
61109;BME280;46995;55.740;37.402;2023-02-23T12:39:20;99649.91;;;-6.80;57.25
61109;BME280;46995;55.740;37.402;2023-02-23T12:44:53;99652.94;;;-6.52;56.69
61109;BME280;46995;55.740;37.402;2023-02-23T12:47:34;99660.81;;;-6.09;55.67
61109;BME280;46995;55.740;37.402;2023-02-23T12:50:06;99650.56;;;-5.66;54.36
61109;BME280;46995;55.740;37.402;2023-02-23T12:53:18;99655.16;;;-5.39;54.35
61109;BME280;46995;55.740;37.402;2023-02-23T13:01:35;99635.81;;;-4.77;51.76
61109;BME280;46995;55.740;37.402;2023-02-23T13:10:25;99645.78;;;-4.61;53.39
61109;BME280;46995;55.740;37.402;2023-02-23T13:21:43;99649.72;;;-4.85;52.37
61109;BME280;46995;55.740;37.402;2023-02-23T13:24:19;99634.09;;;-5.15;53.08
61109;BME280;46995;55.740;37.402;2023-02-23T13:27:00;99645.25;;;-5.16;53.47
61109;BME280;46995;55.740;37.402;2023-02-23T13:29:41;99664.66;;;-5.42;53.59
61109;BME280;46995;55.740;37.402;2023-02-23T13:32:13;99657.31;;;-5.61;53.95
61109;BME280;46995;55.740;37.402;2023-02-23T13:34:49;99661.91;;;-5.76;54.48
61109;BME280;46995;55.740;37.402;2023-02-23T13:37:21;99655.50;;;-6.00;54.73
61109;BME280;46995;55.740;37.402;2023-02-23T13:47:56;99664.78;;;-6.44;56.17
61109;BME280;46995;55.740;37.402;2023-02-23T13:52:53;99643.63;;;-6.59;56.54
61109;BME280;46995;55.740;37.402;2023-02-23T13:58:13;99660.78;;;-6.61;56.71
61109;BME280;46995;55.740;37.402;2023-02-23T14:00:40;99638.84;;;-6.83;56.72
61109;BME280;46995;55.740;37.402;2023-02-23T14:03:20;99648.97;;;-6.74;57.26
61109;BME280;46995;55.740;37.402;2023-02-23T14:05:50;99662.81;;;-6.81;56.95
61109;BME280;46995;55.740;37.402;2023-02-23T14:08:34;99662.88;;;-6.88;56.87
61109;BME280;46995;55.740;37.402;2023-02-23T14:11:01;99647.69;;;-7.03;57.12
61109;BME280;46995;55.740;37.402;2023-02-23T14:13:32;99664.69;;;-6.96;56.97
61109;BME280;46995;55.740;37.402;2023-02-23T14:18:55;99615.56;;;-7.31;58.07
61109;BME280;46995;55.740;37.402;2023-02-23T14:21:32;99663.16;;;-7.09;58.39
61109;BME280;46995;55.740;37.402;2023-02-23T14:24:21;99647.00;;;-7.15;58.38
61109;BME280;46995;55.740;37.402;2023-02-23T14:29:30;99625.97;;;-7.42;58.92
61109;BME280;46995;55.740;37.402;2023-02-23T14:34:54;99629.63;;;-7.62;59.33
61109;BME280;46995;55.740;37.402;2023-02-23T14:37:41;99651.78;;;-7.57;59.58
61109;BME280;46995;55.740;37.402;2023-02-23T14:40:17;99635.78;;;-7.76;59.49
61109;BME280;46995;55.740;37.402;2023-02-23T14:42:49;99629.81;;;-7.78;59.83
61109;BME280;46995;55.740;37.402;2023-02-23T14:45:36;99618.84;;;-7.90;60.33
61109;BME280;46995;55.740;37.402;2023-02-23T14:48:08;99646.09;;;-7.83;60.54
61109;BME280;46995;55.740;37.402;2023-02-23T14:50:37;99631.75;;;-7.98;60.40
61109;BME280;46995;55.740;37.402;2023-02-23T14:53:18;99629.22;;;-8.04;60.24
61109;BME280;46995;55.740;37.402;2023-02-23T14:55:45;99626.78;;;-8.16;61.10
61109;BME280;46995;55.740;37.402;2023-02-23T14:58:27;99625.16;;;-8.22;60.72
61109;BME280;46995;55.740;37.402;2023-02-23T15:00:53;99610.75;;;-8.32;61.02
61109;BME280;46995;55.740;37.402;2023-02-23T15:03:19;99626.91;;;-8.28;60.73
61109;BME280;46995;55.740;37.402;2023-02-23T15:05:59;99623.59;;;-8.33;60.81
61109;BME280;46995;55.740;37.402;2023-02-23T15:08:28;99635.41;;;-8.26;61.13
61109;BME280;46995;55.740;37.402;2023-02-23T15:11:09;99594.75;;;-8.53;61.31
61109;BME280;46995;55.740;37.402;2023-02-23T15:13:39;99590.53;;;-8.62;61.19
61109;BME280;46995;55.740;37.402;2023-02-23T15:16:14;99618.66;;;-8.58;61.29
61109;BME280;46995;55.740;37.402;2023-02-23T15:18:43;99644.19;;;-8.48;61.43
61109;BME280;46995;55.740;37.402;2023-02-23T15:21:15;99644.16;;;-8.45;61.69